Time;durP1;ratioP1;P1;durP2;ratioP2;P2;SDS_P1;SDS_P2;PMS_P1;PMS_P2;Temp;Humidity;BMP_temperature;BMP_pressure;BME280_temperature;BME280_humidity;BME280_pressure;Samples;Min_cycle;Max_cycle;Signal;HPM_P1;HPM_P2
2023/04/16 00:01:47;;;;;;;4.65;3.47;;;;;;;9.30;59.70;99403.34;4474821;31;20121;-91
2023/04/16 00:04:12;;;;;;;6.00;3.78;;;;;;;9.12;59.67;99401.34;4487919;31;20131;-90
2023/04/16 00:06:38;;;;;;;5.97;3.33;;;;;;;9.06;59.68;99397.19;4474795;31;20138;-91
2023/04/16 00:09:03;;;;;;;6.85;3.17;;;;;;;9.07;59.68;99396.28;4474507;31;20114;-91
2023/04/16 00:11:29;;;;;;;9.48;3.40;;;;;;;9.10;59.68;99392.75;4474619;31;20100;-91
2023/04/16 00:13:54;;;;;;;7.07;3.85;;;;;;;8.95;59.67;99393.22;4474855;31;20147;-91
2023/04/16 00:16:20;;;;;;;5.47;3.40;;;;;;;8.89;59.68;99395.12;4474413;31;20437;-90
2023/04/16 00:18:45;;;;;;;5.60;3.60;;;;;;;8.90;59.68;99396.81;4474598;31;20465;-90
2023/04/16 00:21:11;;;;;;;7.10;3.92;;;;;;;8.89;59.67;99391.66;4474679;31;20156;-91
2023/04/16 00:23:36;;;;;;;5.80;3.70;;;;;;;8.87;59.67;99396.91;4474772;31;20155;-91
2023/04/16 00:26:02;;;;;;;6.43;3.67;;;;;;;8.97;59.67;99396.63;4475152;31;20104;-90
2023/04/16 00:28:28;;;;;;;6.18;4.05;;;;;;;8.83;59.67;99395.31;4475168;31;20377;-90
2023/04/16 00:30:53;;;;;;;7.30;4.20;;;;;;;8.94;59.67;99392.38;4488332;31;20092;-90
2023/04/16 00:33:19;;;;;;;4.95;3.15;;;;;;;8.95;59.67;99390.63;4475645;31;20104;-91
2023/04/16 00:35:47;;;;;;;4.97;3.40;;;;;;;8.88;59.67;99400.34;4488000;31;20109;-91
2023/04/16 00:38:13;;;;;;;7.22;3.62;;;;;;;8.76;59.67;99398.16;4487853;31;20135;-91
2023/04/16 00:40:38;;;;;;;4.82;3.03;;;;;;;8.73;59.66;99406.00;4474451;31;20159;-91
2023/04/16 00:43:04;;;;;;;6.78;3.35;;;;;;;8.69;59.66;99404.41;4487687;31;20143;-91
2023/04/16 00:45:29;;;;;;;6.22;3.35;;;;;;;8.59;59.66;99402.09;4474534;31;20166;-90
2023/04/16 00:47:55;;;;;;;5.45;3.12;;;;;;;8.67;59.66;99394.06;4474520;31;20095;-91
2023/04/16 00:50:21;;;;;;;6.60;3.87;;;;;;;8.59;59.66;99402.09;4474462;31;20150;-91
2023/04/16 00:52:47;;;;;;;6.65;4.40;;;;;;;8.45;59.65;99403.38;4487643;31;20122;-90
2023/04/16 00:55:14;;;;;;;5.97;3.22;;;;;;;8.40;59.65;99397.47;4473333;31;20084;-91
2023/04/16 00:57:39;;;;;;;5.93;3.62;;;;;;;8.59;59.66;99403.84;4487771;31;20077;-92
2023/04/16 01:00:07;;;;;;;9.27;3.50;;;;;;;8.52;59.66;99404.91;4487545;31;20100;-91
2023/04/16 01:02:33;;;;;;;9.90;4.55;;;;;;;8.58;59.65;99409.91;4500695;31;20160;-91
2023/04/16 01:04:59;;;;;;;10.27;5.22;;;;;;;8.22;59.64;99407.44;4474232;31;20087;-91
2023/04/16 01:07:25;;;;;;;8.68;4.50;;;;;;;8.22;59.64;99415.22;4487492;31;20100;-91
2023/04/16 01:09:50;;;;;;;10.55;5.65;;;;;;;8.08;59.63;99412.16;4487196;31;20167;-91
2023/04/16 01:12:15;;;;;;;13.00;6.10;;;;;;;8.00;59.63;99416.69;4474200;31;20104;-90
2023/04/16 01:14:41;;;;;;;10.05;4.68;;;;;;;8.03;59.62;99414.00;4487266;31;20103;-91
2023/04/16 01:17:06;;;;;;;6.95;3.75;;;;;;;8.10;59.63;99414.72;4487316;31;20084;-91
2023/04/16 01:19:35;;;;;;;5.65;3.67;;;;;;;7.97;59.62;99412.44;4473827;31;20184;-91
2023/04/16 01:22:01;;;;;;;6.20;3.70;;;;;;;8.02;59.63;99412.31;4474816;31;20154;-91
2023/04/16 01:24:27;;;;;;;6.37;3.60;;;;;;;8.07;59.62;99409.62;4474272;31;20096;-90
2023/04/16 01:26:52;;;;;;;8.40;3.85;;;;;;;8.05;59.62;99416.59;4474039;31;20076;-90
2023/04/16 01:29:18;;;;;;;6.50;3.62;;;;;;;8.09;59.63;99413.00;4473947;31;20279;-91
2023/04/16 01:31:45;;;;;;;8.30;4.35;;;;;;;8.03;59.63;99419.19;4487329;31;20205;-90
2023/04/16 01:34:11;;;;;;;6.57;4.12;;;;;;;8.19;59.63;99420.47;4487228;31;20113;-91
2023/04/16 01:36:36;;;;;;;9.35;4.22;;;;;;;8.01;59.63;99413.19;4487035;31;20120;-90
2023/04/16 01:39:02;;;;;;;7.95;4.25;;;;;;;7.99;59.63;99418.44;4486722;31;20438;-90
2023/04/16 01:41:27;;;;;;;8.38;4.93;;;;;;;8.11;59.63;99409.47;4487014;31;20096;-90
2023/04/16 01:43:52;;;;;;;7.85;4.87;;;;;;;8.21;59.63;99415.25;4473867;31;20143;-90
2023/04/16 01:46:26;;;;;;;7.15;4.87;;;;;;;8.13;59.63;99412.03;4473650;31;20144;-90
2023/04/16 01:48:55;;;;;;;7.72;4.18;;;;;;;8.13;59.63;99412.03;4474123;31;20128;-91
2023/04/16 01:51:21;;;;;;;8.45;5.12;;;;;;;8.16;59.63;99412.78;4487651;31;20451;-90
2023/04/16 01:53:47;;;;;;;8.60;4.93;;;;;;;8.26;59.64;99406.44;4487073;31;20088;-92
2023/04/16 01:56:12;;;;;;;9.48;5.22;;;;;;;8.28;59.63;99422.84;4487065;31;20152;-91
2023/04/16 01:58:38;;;;;;;12.55;5.65;;;;;;;8.36;59.64;99416.63;4473700;31;20213;-90
2023/04/16 02:01:04;;;;;;;12.90;6.35;;;;;;;8.19;59.63;99425.66;4486867;31;20147;-90
2023/04/16 02:03:30;;;;;;;11.27;5.47;;;;;;;8.08;59.63;99419.94;4473605;31;20109;-90
2023/04/16 02:05:55;;;;;;;11.95;5.85;;;;;;;8.19;59.64;99420.47;4474331;31;20107;-91
2023/04/16 02:08:21;;;;;;;9.10;5.18;;;;;;;8.11;59.63;99416.41;4475302;31;20173;-90
2023/04/16 02:10:47;;;;;;;8.02;4.97;;;;;;;8.02;59.62;99413.16;4475681;31;20144;-90
2023/04/16 02:13:16;;;;;;;10.02;5.10;;;;;;;8.10;59.63;99422.50;4475740;31;20143;-91
2023/04/16 02:15:48;;;;;;;7.43;4.57;;;;;;;8.20;59.63;99427.38;4475566;31;20108;-90
2023/04/16 02:18:13;;;;;;;12.25;4.22;;;;;;;8.20;59.63;99429.09;4488686;31;20124;-91
2023/04/16 02:20:40;;;;;;;7.55;4.60;;;;;;;8.06;59.62;99426.06;4475413;31;20385;-91
2023/04/16 02:23:06;;;;;;;10.90;4.72;;;;;;;8.09;59.62;99429.41;4488665;31;20102;-91
2023/04/16 02:25:31;;;;;;;7.12;4.40;;;;;;;8.27;59.64;99435.81;4488632;31;20107;-91
2023/04/16 02:27:57;;;;;;;8.70;4.97;;;;;;;8.25;59.64;99430.69;4475706;31;20152;-90
2023/04/16 02:30:23;;;;;;;6.85;4.45;;;;;;;8.00;59.63;99434.81;4475240;31;20119;-91
2023/04/16 02:32:48;;;;;;;8.00;4.50;;;;;;;8.01;59.63;99441.72;4475623;31;20080;-91
2023/04/16 02:35:14;;;;;;;7.43;4.43;;;;;;;8.04;59.62;99445.97;4475351;31;20100;-90
2023/04/16 02:37:39;;;;;;;8.10;4.57;;;;;;;7.95;59.62;99434.09;4488660;31;20152;-91
2023/04/16 02:40:05;;;;;;;10.20;4.43;;;;;;;7.96;59.62;99434.06;4488653;31;20096;-91
2023/04/16 02:42:31;;;;;;;9.77;5.10;;;;;;;7.88;59.62;99429.97;4488405;31;20048;-91
2023/04/16 02:44:56;;;;;;;8.77;4.95;;;;;;;7.93;59.62;99433.31;4475077;31;20452;-91
2023/04/16 02:47:22;;;;;;;11.45;5.85;;;;;;;7.87;59.62;99433.47;4474903;31;21986;-90
2023/04/16 02:49:47;;;;;;;9.82;4.93;;;;;;;7.95;59.62;99428.91;4475304;31;20149;-90
2023/04/16 02:52:12;;;;;;;10.93;5.60;;;;;;;7.90;59.61;99431.63;4475328;31;20135;-90
2023/04/16 02:54:38;;;;;;;7.87;5.18;;;;;;;7.89;59.62;99442.03;4475302;31;20096;-91
2023/04/16 02:57:04;;;;;;;11.55;6.60;;;;;;;7.79;59.61;99436.22;4475294;31;20148;-91
2023/04/16 02:59:30;;;;;;;10.90;6.68;;;;;;;7.76;59.61;99438.06;4475530;31;20099;-91
2023/04/16 03:01:55;;;;;;;13.57;7.55;;;;;;;7.72;59.61;99436.44;4475343;31;20143;-90
2023/04/16 03:04:21;;;;;;;15.85;7.65;;;;;;;7.77;59.62;99437.16;4488755;31;20102;-90
2023/04/16 03:06:46;;;;;;;18.52;8.38;;;;;;;7.61;59.60;99441.91;4475495;31;20160;-89
2023/04/16 03:09:12;;;;;;;17.77;8.73;;;;;;;7.67;59.60;99444.34;4475687;31;20170;-90
2023/04/16 03:11:37;;;;;;;16.98;8.98;;;;;;;7.62;59.61;99453.97;4477013;31;20147;-90
2023/04/16 03:14:02;;;;;;;20.62;10.88;;;;;;;7.76;59.61;99445.81;4490634;31;20093;-91
2023/04/16 03:16:28;;;;;;;17.73;9.95;;;;;;;7.69;59.60;99442.56;4488524;31;20139;-90
2023/04/16 03:18:53;;;;;;;16.27;9.27;;;;;;;7.56;59.60;99442.00;4487450;31;20164;-90
2023/04/16 03:21:19;;;;;;;18.40;10.35;;;;;;;7.68;59.60;99438.25;4474895;31;20190;-90
2023/04/16 03:23:44;;;;;;;19.27;11.12;;;;;;;7.77;59.62;99442.34;4475094;31;20410;-90
2023/04/16 03:26:10;;;;;;;18.40;9.90;;;;;;;8.04;59.62;99435.59;4474985;31;20172;-90
2023/04/16 03:28:35;;;;;;;19.60;10.43;;;;;;;7.87;59.61;99447.28;4474962;31;20096;-90
2023/04/16 03:31:00;;;;;;;17.52;10.18;;;;;;;7.82;59.62;99462.09;4474867;31;20091;-90
2023/04/16 03:33:26;;;;;;;18.80;10.57;;;;;;;7.93;59.62;99459.22;4488160;31;20254;-90
2023/04/16 03:35:56;;;;;;;20.73;10.40;;;;;;;7.86;59.62;99471.47;4488165;31;20148;-90
2023/04/16 03:38:22;;;;;;;16.85;10.35;;;;;;;7.70;59.61;99468.41;4475051;31;20138;-90
2023/04/16 03:40:47;;;;;;;17.83;9.52;;;;;;;7.47;59.59;99477.63;4474981;31;20178;-91
2023/04/16 03:43:13;;;;;;;17.92;9.68;;;;;;;7.38;59.58;99482.16;4474446;31;23083;-90
2023/04/16 03:45:43;;;;;;;19.40;9.20;;;;;;;7.44;59.59;99486.34;4488053;31;20146;-90
2023/04/16 03:48:09;;;;;;;17.45;9.40;;;;;;;7.55;59.60;99473.97;4475029;31;20187;-90
2023/04/16 03:50:34;;;;;;;20.10;10.05;;;;;;;7.71;59.61;99484.81;4487966;31;20132;-91
2023/04/16 03:53:00;;;;;;;20.77;10.68;;;;;;;7.53;59.59;99493.03;4474862;31;20155;-90
2023/04/16 03:55:25;;;;;;;20.12;9.80;;;;;;;7.60;59.60;99505.81;4474667;31;20148;-90
2023/04/16 03:57:51;;;;;;;20.55;9.93;;;;;;;7.57;59.60;99507.59;4474719;31;20175;-90
2023/04/16 04:00:16;;;;;;;15.13;9.23;;;;;;;7.51;59.60;99508.59;4474716;31;20087;-91
2023/04/16 04:02:42;;;;;;;20.90;10.10;;;;;;;7.69;59.60;99496.97;4474848;31;20175;-91
2023/04/16 04:05:07;;;;;;;18.35;9.52;;;;;;;7.83;59.61;99494.03;4474669;31;20160;-90
2023/04/16 04:07:33;;;;;;;18.52;9.70;;;;;;;7.70;59.61;99499.50;4474803;31;20156;-91
2023/04/16 04:09:58;;;;;;;17.12;10.23;;;;;;;7.82;59.61;99494.94;4474613;31;20437;-91
2023/04/16 04:12:23;;;;;;;19.83;10.57;;;;;;;7.88;59.62;99505.13;4474649;31;20113;-90
2023/04/16 04:14:49;;;;;;;18.20;10.05;;;;;;;7.97;59.62;99494.53;4487870;31;20146;-90
2023/04/16 04:17:15;;;;;;;19.30;10.70;;;;;;;8.15;59.64;99493.22;4474809;31;20096;-91
2023/04/16 04:19:40;;;;;;;16.73;9.98;;;;;;;8.26;59.64;99491.16;4474479;31;20147;-91
2023/04/16 04:22:05;;;;;;;20.55;10.38;;;;;;;8.12;59.63;99493.28;4474581;31;20410;-90
2023/04/16 04:24:31;;;;;;;14.73;9.32;;;;;;;8.30;59.64;99496.25;4474144;31;23690;-90
2023/04/16 04:26:57;;;;;;;17.35;9.90;;;;;;;8.24;59.64;99504.19;4501065;31;20092;-90
2023/04/16 04:29:23;;;;;;;15.52;9.13;;;;;;;8.26;59.64;99515.34;4487822;31;20456;-91
2023/04/16 04:31:48;;;;;;;17.67;10.05;;;;;;;8.49;59.65;99519.09;4487910;31;20139;-90
2023/04/16 04:34:14;;;;;;;14.18;8.23;;;;;;;8.61;59.66;99521.37;4488151;31;20146;-90
2023/04/16 04:36:39;;;;;;;15.45;9.05;;;;;;;8.58;59.65;99519.72;4487745;31;20107;-90
2023/04/16 04:39:05;;;;;;;13.93;8.57;;;;;;;8.38;59.65;99519.41;4487782;31;20089;-90
2023/04/16 04:41:30;;;;;;;12.35;8.05;;;;;;;8.45;59.65;99514.91;4474496;31;20092;-91
2023/04/16 04:43:56;;;;;;;13.40;8.45;;;;;;;8.31;59.64;99521.28;4474350;31;20100;-90
2023/04/16 04:46:21;;;;;;;17.12;9.32;;;;;;;8.31;59.64;99523.03;4502077;31;20092;-90
2023/04/16 04:48:47;;;;;;;13.13;8.45;;;;;;;8.60;59.66;99514.50;4474529;31;20477;-91
2023/04/16 04:51:12;;;;;;;12.68;8.45;;;;;;;8.79;59.66;99518.28;4473925;31;23002;-90
2023/04/16 04:53:38;;;;;;;13.95;8.88;;;;;;;9.01;59.68;99510.72;4474114;31;20273;-90
2023/04/16 04:56:03;;;;;;;12.55;8.45;;;;;;;8.67;59.66;99515.16;4474270;31;20144;-90
2023/04/16 04:58:29;;;;;;;14.40;8.48;;;;;;;8.81;59.66;99513.03;4474337;31;20084;-90
2023/04/16 05:00:54;;;;;;;16.08;8.93;;;;;;;8.86;59.67;99514.59;4474216;31;20147;-91
2023/04/16 05:03:22;;;;;;;12.43;8.20;;;;;;;8.94;59.67;99514.38;4474359;31;20116;-91
2023/04/16 05:05:48;;;;;;;13.40;8.35;;;;;;;8.91;59.68;99525.69;4487630;31;20100;-90
2023/04/16 05:08:13;;;;;;;13.25;8.15;;;;;;;9.10;59.68;99528.63;4487728;31;20570;-90
2023/04/16 05:10:39;;;;;;;13.00;7.87;;;;;;;9.06;59.68;99513.19;4474102;31;20143;-90
2023/04/16 05:13:04;;;;;;;14.25;7.95;;;;;;;9.18;59.68;99515.41;4474124;31;20164;-90
2023/04/16 05:15:30;;;;;;;12.13;7.85;;;;;;;9.21;59.69;99521.34;4474028;31;20483;-90
2023/04/16 05:17:55;;;;;;;13.10;7.57;;;;;;;9.25;59.69;99523.88;4474101;31;20114;-91
2023/04/16 05:20:22;;;;;;;11.35;7.93;;;;;;;9.22;59.69;99522.19;4473511;31;23355;-90
2023/04/16 05:22:49;;;;;;;10.52;7.28;;;;;;;9.27;59.68;99527.28;4474444;31;20532;-90
2023/04/16 05:25:16;;;;;;;12.50;7.22;;;;;;;9.27;59.70;99525.53;4474149;31;20100;-90
2023/04/16 05:27:41;;;;;;;11.70;6.97;;;;;;;9.25;59.69;99531.66;4474308;31;20157;-91
2023/04/16 05:30:07;;;;;;;10.57;6.87;;;;;;;9.27;59.70;99530.72;4474000;31;20092;-90
2023/04/16 05:32:33;;;;;;;16.00;8.32;;;;;;;9.34;59.70;99534.81;4473876;31;20159;-90
2023/04/16 05:34:58;;;;;;;10.07;7.15;;;;;;;9.42;59.71;99535.44;4473812;31;20422;-91
2023/04/16 05:37:23;;;;;;;11.48;7.25;;;;;;;9.50;59.71;99541.25;4473833;31;20138;-90
2023/04/16 05:39:49;;;;;;;12.95;8.40;;;;;;;9.57;59.70;99546.25;4473989;31;20095;-90
2023/04/16 05:42:15;;;;;;;12.10;7.80;;;;;;;9.66;59.72;99540.75;4475664;31;20148;-90
2023/04/16 05:44:40;;;;;;;10.38;6.93;;;;;;;9.87;59.72;99539.22;4476142;31;20464;-90
2023/04/16 05:47:08;;;;;;;11.82;8.35;;;;;;;10.16;59.74;99531.31;4476239;31;20111;-90
2023/04/16 05:49:33;;;;;;;21.50;11.82;;;;;;;10.37;59.75;99534.97;4476791;31;20088;-91
2023/04/16 05:51:59;;;;;;;15.32;9.63;;;;;;;10.19;59.74;99532.97;4490173;31;20116;-91
2023/04/16 05:54:24;;;;;;;10.52;7.78;;;;;;;10.29;59.75;99532.62;4476769;31;20448;-90
2023/04/16 05:56:50;;;;;;;11.05;7.22;;;;;;;10.42;59.76;99533.94;4489016;31;20440;-91
2023/04/16 05:59:15;;;;;;;8.75;6.82;;;;;;;10.53;59.76;99537.91;4488661;31;20100;-90
2023/04/16 06:01:41;;;;;;;10.82;7.70;;;;;;;10.58;59.77;99536.81;4488803;31;20681;-90
2023/04/16 06:04:06;;;;;;;12.37;7.15;;;;;;;10.58;59.76;99538.56;4475579;31;20116;-90
2023/04/16 06:06:32;;;;;;;11.25;7.07;;;;;;;10.63;59.77;99542.69;4488741;31;20123;-91
2023/04/16 06:08:57;;;;;;;9.80;7.03;;;;;;;10.86;59.78;99544.47;4475024;31;21188;-91
2023/04/16 06:11:22;;;;;;;10.18;6.85;;;;;;;10.89;59.78;99548.75;4475459;31;20395;-91
2023/04/16 06:13:48;;;;;;;12.65;7.57;;;;;;;10.96;59.79;99547.62;4475227;31;20476;-91
2023/04/16 06:16:13;;;;;;;9.82;7.55;;;;;;;10.97;59.78;99549.31;4488672;31;20139;-90
2023/04/16 06:18:39;;;;;;;9.25;6.80;;;;;;;11.09;59.80;99541.03;4475046;31;20653;-91
2023/04/16 06:21:04;;;;;;;8.43;6.90;;;;;;;11.15;59.79;99548.63;4488400;31;20392;-92
2023/04/16 06:23:30;;;;;;;11.85;6.87;;;;;;;11.33;59.80;99549.69;4488737;31;20402;-90
2023/04/16 06:25:55;;;;;;;8.30;6.32;;;;;;;11.42;59.81;99545.88;4475413;31;20190;-92
2023/04/16 06:28:20;;;;;;;8.00;6.43;;;;;;;11.56;59.82;99536.59;4475412;31;20476;-90
2023/04/16 06:30:46;;;;;;;10.07;6.47;;;;;;;11.58;59.81;99547.81;4488610;31;20254;-90
2023/04/16 06:33:12;;;;;;;7.72;6.30;;;;;;;11.57;59.82;99540.06;4475339;31;20180;-91
2023/04/16 06:35:37;;;;;;;9.93;6.62;;;;;;;11.86;59.84;99541.56;4488578;31;20477;-91
2023/04/16 06:38:02;;;;;;;8.63;6.35;;;;;;;11.90;59.84;99538.75;4488646;31;20168;-91
2023/04/16 06:40:28;;;;;;;7.70;5.65;;;;;;;12.29;59.86;99538.00;4475274;31;20433;-90
2023/04/16 06:42:53;;;;;;;7.85;5.85;;;;;;;12.44;59.87;99542.56;4475256;31;20130;-90
2023/04/16 06:45:19;;;;;;;8.00;5.20;;;;;;;12.77;59.88;99536.78;4475104;31;20164;-90
2023/04/16 06:47:45;;;;;;;6.47;4.87;;;;;;;12.88;59.89;99542.41;4475395;31;20115;-91
2023/04/16 06:50:10;;;;;;;8.77;5.72;;;;;;;13.15;59.90;99530.69;4488503;31;20108;-91
2023/04/16 06:52:35;;;;;;;13.82;7.60;;;;;;;13.25;59.91;99523.34;4474311;31;20504;-90
2023/04/16 06:55:01;;;;;;;10.00;6.55;;;;;;;13.52;59.93;99529.03;4475221;31;20114;-91
2023/04/16 06:57:26;;;;;;;6.22;4.70;;;;;;;13.64;59.94;99523.19;4475328;31;20109;-91
2023/04/16 06:59:52;;;;;;;6.35;4.43;;;;;;;13.96;59.95;99523.38;4488428;31;20170;-91
2023/04/16 07:02:17;;;;;;;7.10;4.93;;;;;;;14.18;59.96;99515.31;4488616;31;20145;-91
2023/04/16 07:04:43;;;;;;;5.97;4.07;;;;;;;14.32;59.96;99520.72;4488659;31;20151;-91
2023/04/16 07:07:08;;;;;;;9.40;5.57;;;;;;;14.38;59.97;99523.00;4488977;31;20132;-91
2023/04/16 07:09:34;;;;;;;6.53;4.28;;;;;;;14.20;59.96;99521.34;4489132;31;20103;-91
2023/04/16 07:11:59;;;;;;;6.80;3.85;;;;;;;14.14;59.96;99522.47;4490100;31;20122;-90
2023/04/16 07:14:25;;;;;;;5.25;4.00;;;;;;;14.46;59.97;99527.91;4490165;31;20089;-91
2023/04/16 07:16:50;;;;;;;8.60;4.05;;;;;;;14.61;59.98;99529.72;4488473;31;20421;-90
2023/04/16 07:19:16;;;;;;;4.68;3.20;;;;;;;14.60;59.98;99528.03;4474917;31;20178;-91
2023/04/16 07:21:42;;;;;;;5.47;3.30;;;;;;;14.49;59.97;99520.72;4475038;31;20096;-90
2023/04/16 07:24:09;;;;;;;4.62;3.10;;;;;;;14.58;59.98;99520.25;4475283;31;20168;-90
2023/04/16 07:26:34;;;;;;;5.50;3.40;;;;;;;14.64;59.99;99522.53;4475113;31;20118;-90
2023/04/16 07:29:00;;;;;;;3.95;3.03;;;;;;;14.95;60.00;99521.78;4488031;31;20360;-91
2023/04/16 07:31:26;;;;;;;5.37;3.45;;;;;;;15.07;60.00;99525.50;4488101;31;20126;-91
2023/04/16 07:33:51;;;;;;;4.28;3.20;;;;;;;15.22;60.01;99523.84;4488087;31;20103;-91
2023/04/16 07:36:16;;;;;;;3.90;2.83;;;;;;;15.36;60.02;99529.16;4474976;31;20353;-91
2023/04/16 07:38:42;;;;;;;5.68;3.83;;;;;;;15.32;60.03;99525.00;4474751;31;20152;-91
2023/04/16 07:41:07;;;;;;;3.65;3.17;;;;;;;15.65;60.04;99522.34;4474515;31;20179;-91
2023/04/16 07:43:33;;;;;;;5.18;3.03;;;;;;;15.76;60.04;99516.47;4474803;31;20111;-90
2023/04/16 07:45:58;;;;;;;8.40;2.95;;;;;;;15.91;60.05;99518.22;4501004;31;20088;-92
2023/04/16 07:48:24;;;;;;;4.32;2.42;;;;;;;16.02;60.06;99517.59;4488170;31;20133;-92
2023/04/16 07:50:49;;;;;;;3.85;2.58;;;;;;;16.14;60.06;99519.53;4488042;31;20136;-91
2023/04/16 07:53:15;;;;;;;6.37;2.03;;;;;;;16.11;60.06;99523.19;4474808;31;20131;-91
2023/04/16 07:55:40;;;;;;;4.80;2.35;;;;;;;16.10;60.06;99528.53;4474866;31;20147;-91
2023/04/16 07:58:08;;;;;;;6.75;1.87;;;;;;;15.95;60.06;99525.84;4474758;31;20146;-92
2023/04/16 08:00:33;;;;;;;5.05;2.40;;;;;;;15.90;60.05;99520.00;4501288;31;20108;-92
2023/04/16 08:02:59;;;;;;;4.62;2.97;;;;;;;15.93;60.05;99521.63;4474335;31;20139;-91
2023/04/16 08:05:24;;;;;;;5.05;1.90;;;;;;;16.00;60.05;99527.34;4474911;31;20424;-91
2023/04/16 08:07:50;;;;;;;5.93;2.58;;;;;;;16.03;60.06;99535.87;4474783;31;20139;-92
2023/04/16 08:10:15;;;;;;;2.50;2.25;;;;;;;15.98;60.05;99535.31;4474495;31;20839;-92
2023/04/16 08:12:40;;;;;;;3.60;2.03;;;;;;;16.08;60.06;99528.59;4474830;31;20125;-92
2023/04/16 08:15:06;;;;;;;3.90;2.47;;;;;;;16.07;60.06;99531.31;4474603;31;20100;-92
2023/04/16 08:17:33;;;;;;;4.20;2.00;;;;;;;16.12;60.06;99537.16;4475055;31;20120;-93
2023/04/16 08:19:58;;;;;;;4.95;2.00;;;;;;;16.17;60.07;99528.06;4475097;31;20113;-91
2023/04/16 08:22:25;;;;;;;3.20;1.73;;;;;;;16.12;60.06;99540.62;4487976;31;20380;-92
2023/04/16 08:24:50;;;;;;;3.67;2.00;;;;;;;16.26;60.07;99531.94;4488462;31;20163;-93
2023/04/16 08:27:16;;;;;;;3.10;2.35;;;;;;;16.32;60.08;99538.59;4475806;31;20155;-91
2023/04/16 08:29:41;;;;;;;3.20;1.98;;;;;;;16.24;60.08;99536.44;4475577;31;20507;-91
2023/04/16 08:32:08;;;;;;;3.17;2.00;;;;;;;16.23;60.06;99534.75;4476314;31;20087;-92
2023/04/16 08:34:34;;;;;;;4.90;2.17;;;;;;;16.15;60.06;99542.22;4476609;31;20156;-92
2023/04/16 08:36:59;;;;;;;3.03;1.90;;;;;;;16.09;60.07;99543.44;4474948;31;20105;-92
2023/04/16 08:39:24;;;;;;;4.95;2.03;;;;;;;16.25;60.07;99538.97;4474577;31;20456;-92
2023/04/16 08:41:50;;;;;;;3.40;2.03;;;;;;;16.43;60.08;99539.66;4474681;31;20111;-92
2023/04/16 08:44:20;;;;;;;3.95;2.00;;;;;;;16.60;60.09;99545.72;4474213;31;20116;-91
2023/04/16 08:46:46;;;;;;;;;;;;;;;16.66;60.09;99547.97;4474957;31;20134;-92
2023/04/16 08:49:16;;;;;;;2.30;1.62;;;;;;;16.65;60.09;99551.53;4500994;31;20294;-91
2023/04/16 08:51:42;;;;;;;3.42;1.77;;;;;;;16.54;60.08;99547.75;4475332;31;20104;-92
2023/04/16 08:54:08;;;;;;;3.60;1.75;;;;;;;16.49;60.08;99556.84;4474502;31;20405;-92
2023/04/16 08:56:35;;;;;;;1.98;1.33;;;;;;;16.55;60.09;99559.09;4474631;31;20452;-92
2023/04/16 08:59:04;;;;;;;2.65;1.60;;;;;;;16.68;60.09;99552.22;4474534;31;20480;-92
2023/04/16 09:01:29;;;;;;;2.22;1.15;;;;;;;16.70;60.10;99555.59;4475157;31;20459;-93
2023/04/16 09:03:54;;;;;;;2.37;1.45;;;;;;;17.02;60.11;99556.25;4474365;31;20114;-92
2023/04/16 09:06:20;;;;;;;3.33;1.40;;;;;;;17.20;60.12;99551.66;4487594;31;20411;-92
2023/04/16 09:08:45;;;;;;;2.65;1.77;;;;;;;17.46;60.13;99563.16;4474152;31;21207;-93
2023/04/16 09:11:12;;;;;;;3.08;1.45;;;;;;;17.72;60.15;99557.13;4474290;31;20127;-92
2023/04/16 09:13:38;;;;;;;3.87;1.40;;;;;;;18.16;60.18;99558.63;4474440;31;20127;-93
2023/04/16 09:16:04;;;;;;;2.35;1.50;;;;;;;18.27;60.18;99557.94;4473368;31;20159;-93
2023/04/16 09:18:30;;;;;;;2.17;1.42;;;;;;;18.33;60.18;99568.91;4474505;31;20112;-93
2023/04/16 09:20:55;;;;;;;1.58;1.25;;;;;;;18.24;60.18;99585.34;4474358;31;20080;-92
2023/04/16 09:23:21;;;;;;;2.78;1.50;;;;;;;18.15;60.17;99564.84;4474450;31;20135;-93
2023/04/16 09:25:46;;;;;;;1.73;1.12;;;;;;;18.09;60.17;99567.91;4487335;31;20119;-93
2023/04/16 09:28:12;;;;;;;2.72;1.02;;;;;;;18.24;60.18;99571.31;4473929;31;21381;-92
2023/04/16 09:30:37;;;;;;;2.58;1.27;;;;;;;18.37;60.20;99580.94;4474002;31;20423;-93
2023/04/16 09:33:20;;;;;;;2.25;1.30;;;;;;;18.46;60.19;99576.00;4487280;31;20119;-92
2023/04/16 09:35:55;;;;;;;4.30;1.55;;;;;;;18.48;60.20;99582.03;4475438;31;20857;-92
2023/04/16 09:38:21;;;;;;;4.53;1.80;;;;;;;18.41;60.19;99576.28;4475162;31;20126;-93
2023/04/16 09:40:46;;;;;;;1.62;0.88;;;;;;;18.39;60.20;99580.81;4474251;31;20092;-92
2023/04/16 09:43:13;;;;;;;2.65;1.25;;;;;;;18.33;60.19;99578.59;4474403;31;20496;-92
2023/04/16 09:45:51;;;;;;;2.95;1.33;;;;;;;18.38;60.20;99576.50;4474772;31;20479;-93
2023/04/16 09:48:35;;;;;;;2.58;1.42;;;;;;;18.50;60.19;99578.31;4475094;31;20126;-92
2023/04/16 09:51:00;;;;;;;2.65;1.70;;;;;;;18.55;60.20;99581.50;4475417;31;20111;-93
2023/04/16 09:53:27;;;;;;;2.72;1.30;;;;;;;18.46;60.19;99583.91;4477101;31;20431;-92
2023/04/16 09:55:57;;;;;;;3.53;1.42;;;;;;;18.34;60.19;99588.19;4475676;31;20162;-93
2023/04/16 09:58:23;;;;;;;3.42;1.87;;;;;;;18.14;60.17;99583.41;4474227;31;20130;-93
2023/04/16 10:00:49;;;;;;;2.53;1.73;;;;;;;18.01;60.17;99580.75;4474834;31;20167;-93
2023/04/16 10:03:16;;;;;;;3.55;1.90;;;;;;;18.21;60.18;99582.03;4474069;31;20085;-92
2023/04/16 10:05:41;;;;;;;3.62;1.85;;;;;;;18.26;60.19;99583.44;4474220;31;20124;-92
2023/04/16 10:08:11;;;;;;;2.17;1.30;;;;;;;18.23;60.19;99580.16;4473770;31;20491;-93
2023/04/16 10:10:37;;;;;;;4.18;1.77;;;;;;;18.25;60.18;99576.50;4473946;31;20804;-93
2023/04/16 10:13:02;;;;;;;7.25;1.42;;;;;;;18.34;60.18;99570.59;4473576;31;20149;-93
2023/04/16 10:15:28;;;;;;;3.83;1.75;;;;;;;18.45;60.19;99572.50;4473622;31;20152;-92
2023/04/16 10:17:53;;;;;;;2.28;1.58;;;;;;;18.63;60.21;99578.34;4473531;31;20523;-92
2023/04/16 10:20:19;;;;;;;3.30;1.75;;;;;;;18.41;60.19;99566.59;4473473;31;20137;-94
2023/04/16 10:22:45;;;;;;;5.10;1.70;;;;;;;18.49;60.20;99570.53;4473622;31;20118;-93
2023/04/16 10:25:10;;;;;;;2.00;1.67;;;;;;;18.56;60.21;99563.88;4472899;31;27524;-93
2023/04/16 10:27:36;;;;;;;3.65;2.05;;;;;;;18.68;60.20;99557.78;4474952;31;20124;-93
2023/04/16 10:30:01;;;;;;;3.28;1.73;;;;;;;18.68;60.20;99561.28;4475800;31;20099;-93
2023/04/16 10:32:27;;;;;;;1.90;1.42;;;;;;;18.56;60.20;99570.00;4475699;31;20426;-94
2023/04/16 10:34:54;;;;;;;2.08;1.27;;;;;;;18.59;60.20;99563.66;4475790;31;20213;-93
2023/04/16 10:37:27;;;;;;;2.15;1.40;;;;;;;18.52;60.19;99563.25;4488994;31;20456;-93
2023/04/16 10:39:53;;;;;;;2.12;1.30;;;;;;;18.26;60.19;99567.63;4476536;31;20148;-92
2023/04/16 10:42:18;;;;;;;1.73;1.00;;;;;;;18.37;60.19;99569.53;4475648;31;20168;-93
2023/04/16 10:44:44;;;;;;;2.17;1.27;;;;;;;18.42;60.19;99557.75;4475586;31;20165;-93
2023/04/16 10:47:12;;;;;;;2.08;1.15;;;;;;;18.39;60.20;99549.19;4475475;31;20138;-92
2023/04/16 10:49:38;;;;;;;2.12;1.15;;;;;;;18.65;60.20;99550.94;4476244;31;20160;-92
2023/04/16 10:52:12;;;;;;;3.00;1.17;;;;;;;18.88;60.22;99545.88;4475511;31;20141;-93
2023/04/16 10:54:37;;;;;;;1.98;0.93;;;;;;;18.99;60.22;99544.19;4488812;31;20112;-93
2023/04/16 10:57:04;;;;;;;1.30;0.93;;;;;;;19.27;60.24;99545.72;4475582;31;20162;-93
2023/04/16 10:59:31;;;;;;;2.28;1.30;;;;;;;19.44;60.25;99541.06;4475546;31;20087;-93
2023/04/16 11:01:58;;;;;;;1.37;1.15;;;;;;;19.54;60.27;99536.81;4475751;31;20104;-93
2023/04/16 11:04:24;;;;;;;1.80;1.12;;;;;;;19.74;60.26;99527.44;4488961;31;20119;-93
2023/04/16 11:07:05;;;;;;;1.83;1.05;;;;;;;19.94;60.28;99532.12;4501980;31;20404;-93
2023/04/16 11:10:00;;;;;;;1.52;0.88;;;;;;;20.03;60.28;99530.56;4502061;31;20095;-93
2023/04/16 11:12:36;;;;;;;0.82;0.60;;;;;;;20.28;60.29;99514.56;4477761;31;20123;-92
2023/04/16 11:15:05;;;;;;;1.15;0.75;;;;;;;20.42;60.30;99527.63;4476634;31;20136;-92
2023/04/16 11:17:49;;;;;;;2.40;0.85;;;;;;;20.27;60.29;99515.53;4488624;31;20235;-91
2023/04/16 11:20:16;;;;;;;1.67;1.20;;;;;;;19.96;60.28;99519.63;4476154;31;20115;-93
2023/04/16 11:22:41;;;;;;;2.10;1.10;;;;;;;19.76;60.26;99523.72;4488490;31;20159;-92
2023/04/16 11:25:07;;;;;;;1.48;1.00;;;;;;;19.84;60.27;99531.09;4488456;31;20108;-92
2023/04/16 11:27:33;;;;;;;2.85;0.98;;;;;;;19.70;60.27;99532.12;4475289;31;20492;-92
2023/04/16 11:30:03;;;;;;;5.20;1.00;;;;;;;19.89;60.27;99528.97;4475255;31;20140;-92